Time;durP1;ratioP1;P1;durP2;ratioP2;P2;SDS_P1;SDS_P2;PMS_P1;PMS_P2;Temp;Humidity;BMP_temperature;BMP_pressure;BME280_temperature;BME280_humidity;BME280_pressure;Samples;Min_cycle;Max_cycle;Signal;HPM_P1;HPM_P2
2023/10/13 00:01:13;;;;;;;3.80;2.00;;;;;;;;;;5062559;27;87797;-54
2023/10/13 00:03:42;;;;;;;2.77;1.83;;;;;;;;;;5049350;27;89708;-54
2023/10/13 00:06:10;;;;;;;2.20;1.50;;;;;;;;;;5060554;27;89162;-54
2023/10/13 00:08:39;;;;;;;2.27;1.83;;;;;;;;;;5061152;27;87716;-54
2023/10/13 00:11:09;;;;;;;2.03;1.77;;;;;;;;;;5062475;27;87647;-54
2023/10/13 00:13:43;;;;;;;5.20;2.00;;;;;;;;;;5061768;27;90388;-54
2023/10/13 00:16:17;;;;;;;5.70;1.70;;;;;;;;;;5062421;27;90565;-54
2023/10/13 00:18:46;;;;;;;3.53;2.03;;;;;;;;;;5062226;27;88950;-54
2023/10/13 00:21:15;;;;;;;3.00;2.20;;;;;;;;;;5054003;27;87684;-54
2023/10/13 00:23:52;;;;;;;2.53;1.63;;;;;;;;;;5062273;27;89693;-54
2023/10/13 00:26:24;;;;;;;2.50;1.60;;;;;;;;;;5061147;27;90156;-54
2023/10/13 00:28:58;;;;;;;2.77;1.47;;;;;;;;;;5062250;27;89533;-54
2023/10/13 00:31:33;;;;;;;2.70;1.90;;;;;;;;;;5062605;27;87507;-54
2023/10/13 00:34:09;;;;;;;2.30;1.70;;;;;;;;;;5062122;27;89730;-54
2023/10/13 00:36:46;;;;;;;2.10;1.60;;;;;;;;;;5055837;27;89198;-54
2023/10/13 00:39:15;;;;;;;2.57;1.70;;;;;;;;;;5050043;27;88815;-54
2023/10/13 00:41:57;;;;;;;2.23;1.53;;;;;;;;;;5061191;27;87636;-54
2023/10/13 00:44:28;;;;;;;2.67;1.73;;;;;;;;;;5043994;27;89639;-54
2023/10/13 00:46:58;;;;;;;2.67;1.40;;;;;;;;;;5054952;27;89114;-54
2023/10/13 00:49:27;;;;;;;2.17;1.97;;;;;;;;;;5060664;27;87672;-54
2023/10/13 00:51:57;;;;;;;1.70;1.53;;;;;;;;;;5060666;27;87749;-54
2023/10/13 00:54:27;;;;;;;3.00;1.60;;;;;;;;;;5056181;27;88656;-54
2023/10/13 00:57:04;;;;;;;2.13;1.50;;;;;;;;;;5059675;27;88954;-54
2023/10/13 00:59:36;;;;;;;2.70;1.83;;;;;;;;;;5061705;27;88807;-54
2023/10/13 01:04:48;;;;;;;2.77;1.43;;;;;;;;;;5061088;27;89870;-54
2023/10/13 01:07:16;;;;;;;2.90;1.60;;;;;;;;;;5061196;27;89208;-54
2023/10/13 01:09:46;;;;;;;1.57;1.20;;;;;;;;;;5061763;27;88572;-54
2023/10/13 01:12:14;;;;;;;2.10;1.80;;;;;;;;;;5042314;27;87550;-54
2023/10/13 01:14:44;;;;;;;1.97;1.53;;;;;;;;;;5040962;28;87569;-54
2023/10/13 01:17:13;;;;;;;2.53;1.70;;;;;;;;;;5054940;27;90126;-54
2023/10/13 01:19:43;;;;;;;1.80;1.40;;;;;;;;;;5060705;27;89747;-54
2023/10/13 01:22:11;;;;;;;3.57;1.90;;;;;;;;;;5061575;27;87552;-54
2023/10/13 01:24:41;;;;;;;1.77;1.10;;;;;;;;;;5060763;27;89764;-54
2023/10/13 01:27:17;;;;;;;2.90;1.07;;;;;;;;;;5058992;27;89005;-54
2023/10/13 01:29:49;;;;;;;2.37;1.50;;;;;;;;;;5056094;27;88762;-54
2023/10/13 01:32:16;;;;;;;2.83;1.57;;;;;;;;;;5060861;27;88445;-54
2023/10/13 01:34:48;;;;;;;3.03;1.40;;;;;;;;;;5060149;27;89690;-54
2023/10/13 01:37:16;;;;;;;1.77;1.47;;;;;;;;;;5061018;27;89167;-54
2023/10/13 01:39:47;;;;;;;2.63;1.37;;;;;;;;;;5067090;27;88755;-54
2023/10/13 01:42:19;;;;;;;1.67;1.30;;;;;;;;;;5061513;27;87806;-54
2023/10/13 01:44:47;;;;;;;2.17;1.80;;;;;;;;;;5059917;27;88633;-54
2023/10/13 01:47:16;;;;;;;2.53;1.50;;;;;;;;;;5058381;27;89174;-54
2023/10/13 01:49:47;;;;;;;1.30;1.20;;;;;;;;;;5060386;27;88923;-54
2023/10/13 01:52:16;;;;;;;1.30;1.13;;;;;;;;;;5060187;27;87519;-54
2023/10/13 01:54:45;;;;;;;1.57;1.00;;;;;;;;;;5062468;27;89578;-54
2023/10/13 01:57:17;;;;;;;2.33;1.10;;;;;;;;;;5063585;27;89060;-54
2023/10/13 01:59:44;;;;;;;2.80;1.60;;;;;;;;;;5063496;27;88892;-54
2023/10/13 02:02:13;;;;;;;1.63;1.20;;;;;;;;;;5073037;27;87682;-54
2023/10/13 02:04:48;;;;;;;1.53;1.23;;;;;;;;;;5056080;27;89567;-54
2023/10/13 02:07:17;;;;;;;2.10;1.23;;;;;;;;;;5060719;27;90013;-54
2023/10/13 02:09:47;;;;;;;2.73;1.30;;;;;;;;;;5059323;27;88704;-54
2023/10/13 02:12:15;;;;;;;1.07;0.97;;;;;;;;;;5062914;27;87679;-54
2023/10/13 02:14:44;;;;;;;3.10;1.50;;;;;;;;;;5061309;27;88535;-54
2023/10/13 02:17:13;;;;;;;2.20;1.23;;;;;;;;;;5061751;27;89029;-54
2023/10/13 02:19:44;;;;;;;0.83;0.83;;;;;;;;;;5061879;27;87760;-54
2023/10/13 02:22:24;;;;;;;2.40;1.30;;;;;;;;;;5062218;27;88621;-54
2023/10/13 02:24:53;;;;;;;2.87;1.40;;;;;;;;;;5063518;27;90259;-54
2023/10/13 02:27:23;;;;;;;1.80;1.13;;;;;;;;;;5063216;27;88129;-54
2023/10/13 02:29:58;;;;;;;1.70;1.23;;;;;;;;;;5061989;27;88877;-54
2023/10/13 02:32:26;;;;;;;1.00;0.90;;;;;;;;;;5061970;27;88035;-55
2023/10/13 02:35:05;;;;;;;1.43;1.30;;;;;;;;;;5046555;27;89645;-54
2023/10/13 02:37:35;;;;;;;1.87;0.90;;;;;;;;;;5063197;27;88132;-54
2023/10/13 02:40:04;;;;;;;2.00;0.90;;;;;;;;;;5062891;27;89099;-54
2023/10/13 02:42:33;;;;;;;1.73;0.80;;;;;;;;;;5059399;27;87672;-54
2023/10/13 02:45:00;;;;;;;1.17;0.90;;;;;;;;;;5059837;27;88539;-54
2023/10/13 02:47:31;;;;;;;0.80;0.73;;;;;;;;;;5049967;27;89191;-54
2023/10/13 02:50:00;;;;;;;2.23;1.10;;;;;;;;;;5059097;27;88027;-54
2023/10/13 02:52:34;;;;;;;1.57;1.27;;;;;;;;;;5059271;27;88353;-54
2023/10/13 02:55:08;;;;;;;6.47;1.07;;;;;;;;;;5058067;27;88648;-54
2023/10/13 02:57:40;;;;;;;4.60;1.00;;;;;;;;;;5057954;27;89139;-53
2023/10/13 03:00:12;;;;;;;0.83;0.83;;;;;;;;;;5043844;27;88078;-53
2023/10/13 03:02:50;;;;;;;1.20;1.10;;;;;;;;;;5043710;27;88018;-54
2023/10/13 03:05:18;;;;;;;1.33;1.00;;;;;;;;;;5057380;27;89730;-54
2023/10/13 03:07:50;;;;;;;4.63;1.10;;;;;;;;;;5048945;27;89058;-53
2023/10/13 03:10:19;;;;;;;1.10;0.70;;;;;;;;;;5043756;27;87731;-54
2023/10/13 03:12:49;;;;;;;2.70;1.37;;;;;;;;;;5046694;27;87418;-53
2023/10/13 03:15:17;;;;;;;0.93;0.90;;;;;;;;;;5055997;27;89563;-53
2023/10/13 03:17:47;;;;;;;4.17;1.30;;;;;;;;;;5046368;27;89103;-53
2023/10/13 03:20:16;;;;;;;1.40;1.20;;;;;;;;;;5059907;27;87781;-53
2023/10/13 03:22:44;;;;;;;1.73;0.80;;;;;;;;;;5058667;27;90034;-53
2023/10/13 03:25:22;;;;;;;0.97;0.97;;;;;;;;;;5053216;27;89575;-54
2023/10/13 03:28:01;;;;;;;3.30;1.50;;;;;;;;;;5046733;27;89360;-53
2023/10/13 03:30:35;;;;;;;1.63;1.07;;;;;;;;;;5059079;27;88833;-53
2023/10/13 03:33:07;;;;;;;1.73;1.20;;;;;;;;;;5058455;27;87681;-53
2023/10/13 03:35:41;;;;;;;2.80;1.57;;;;;;;;;;5058867;27;89828;-54
2023/10/13 03:38:17;;;;;;;2.53;1.60;;;;;;;;;;5042081;27;89411;-53
2023/10/13 03:41:07;;;;;;;2.63;1.70;;;;;;;;;;5059659;27;88073;-54
2023/10/13 03:43:44;;;;;;;3.40;1.27;;;;;;;;;;5058911;27;87595;-53
2023/10/13 03:46:14;;;;;;;2.00;1.00;;;;;;;;;;5057543;27;89524;-54
2023/10/13 03:48:54;;;;;;;1.57;1.23;;;;;;;;;;5056382;27;90189;-53
2023/10/13 03:51:30;;;;;;;6.83;1.30;;;;;;;;;;5054223;27;88642;-54
2023/10/13 03:54:01;;;;;;;3.03;1.30;;;;;;;;;;5059388;27;87602;-54
2023/10/13 03:56:38;;;;;;;1.90;1.30;;;;;;;;;;5059191;27;88480;-53
2023/10/13 03:59:16;;;;;;;2.80;1.77;;;;;;;;;;5056218;27;87960;-54
2023/10/13 04:01:58;;;;;;;2.23;1.23;;;;;;;;;;5055712;27;88795;-54
2023/10/13 04:04:44;;;;;;;1.20;1.10;;;;;;;;;;5057032;27;87983;-54
2023/10/13 04:16:14;;;;;;;1.80;1.40;;;;;;;;;;5021765;27;88118;-54
2023/10/13 04:19:07;;;;;;;2.33;1.67;;;;;;;;;;5060284;27;88484;-54
2023/10/13 04:21:56;;;;;;;3.13;1.40;;;;;;;;;;5059190;27;88115;-53
2023/10/13 04:24:39;;;;;;;1.53;1.33;;;;;;;;;;5060925;27;88764;-54
2023/10/13 04:27:29;;;;;;;1.33;1.23;;;;;;;;;;5056964;27;87484;-54
2023/10/13 04:30:10;;;;;;;1.50;1.40;;;;;;;;;;5042132;28;88509;-54
2023/10/13 04:32:46;;;;;;;1.33;1.20;;;;;;;;;;5042879;27;89090;-54
2023/10/13 04:35:18;;;;;;;3.17;1.73;;;;;;;;;;5060420;27;88818;-54
2023/10/13 04:37:54;;;;;;;1.60;1.20;;;;;;;;;;5058807;27;87533;-55
2023/10/13 04:40:24;;;;;;;3.30;1.53;;;;;;;;;;5057225;27;89537;-54
2023/10/13 04:42:57;;;;;;;2.00;1.13;;;;;;;;;;5059169;27;89046;-53
2023/10/13 04:45:38;;;;;;;4.23;1.30;;;;;;;;;;5060173;27;90003;-54
2023/10/13 04:48:17;;;;;;;3.80;1.70;;;;;;;;;;5057892;27;87644;-54
2023/10/13 04:50:46;;;;;;;1.20;1.10;;;;;;;;;;5055596;27;87644;-53
2023/10/13 04:53:28;;;;;;;3.10;1.40;;;;;;;;;;5057912;27;88007;-54
2023/10/13 04:56:53;;;;;;;1.13;1.07;;;;;;;;;;5060502;27;87707;-54
2023/10/13 04:59:17;;;;;;;2.87;1.60;;;;;;;;;;5057375;27;87623;-53
2023/10/13 05:46:49;;;;;;;3.93;1.83;;;;;;;;;;5035629;27;88435;-54
2023/10/13 05:49:40;;;;;;;5.30;2.13;;;;;;;;;;5056972;27;88053;-54
2023/10/13 05:52:18;;;;;;;4.27;1.77;;;;;;;;;;5051995;27;88165;-54
2023/10/13 06:31:01;;;;;;;1.87;1.60;;;;;;;;;;5058111;27;88591;-57
2023/10/13 06:33:29;;;;;;;3.47;1.80;;;;;;;;;;5056174;27;90044;-56
2023/10/13 06:35:58;;;;;;;2.80;2.07;;;;;;;;;;5052481;27;88508;-55
2023/10/13 06:38:30;;;;;;;4.33;1.87;;;;;;;;;;5053611;27;87614;-55
2023/10/13 06:40:59;;;;;;;2.63;1.50;;;;;;;;;;5059454;27;89102;-55
2023/10/13 06:43:32;;;;;;;2.30;1.47;;;;;;;;;;5061745;27;89174;-55
2023/10/13 06:46:02;;;;;;;2.37;1.33;;;;;;;;;;5060499;27;87624;-55
2023/10/13 06:48:33;;;;;;;2.37;1.30;;;;;;;;;;5054703;27;87523;-55
2023/10/13 06:51:12;;;;;;;1.43;1.30;;;;;;;;;;5059438;27;89533;-55
2023/10/13 06:53:46;;;;;;;2.13;1.30;;;;;;;;;;5057449;27;88908;-56
2023/10/13 06:56:17;;;;;;;1.63;1.43;;;;;;;;;;5061671;27;88923;-56
2023/10/13 06:58:47;;;;;;;2.00;1.47;;;;;;;;;;5049616;27;88758;-56
2023/10/13 07:01:15;;;;;;;1.30;1.20;;;;;;;;;;5053846;27;88316;-55
2023/10/13 07:03:49;;;;;;;2.77;1.33;;;;;;;;;;5055765;27;89129;-57
2023/10/13 07:06:21;;;;;;;3.03;1.30;;;;;;;;;;5055246;27;90607;-56
2023/10/13 07:08:52;;;;;;;2.00;1.60;;;;;;;;;;5061057;27;87634;-56
2023/10/13 07:11:32;;;;;;;3.37;1.40;;;;;;;;;;5061859;27;89662;-56
2023/10/13 07:14:10;;;;;;;4.27;1.67;;;;;;;;;;5059304;27;88228;-55
2023/10/13 07:16:46;;;;;;;2.87;1.63;;;;;;;;;;5054818;27;87936;-56
2023/10/13 07:19:17;;;;;;;2.40;1.20;;;;;;;;;;5057550;27;87479;-56
2023/10/13 07:21:48;;;;;;;5.50;1.67;;;;;;;;;;5060174;27;88502;-56
2023/10/13 07:24:16;;;;;;;3.80;1.57;;;;;;;;;;5060886;27;88982;-56
2023/10/13 07:26:47;;;;;;;2.43;1.70;;;;;;;;;;5059647;27;89823;-56
2023/10/13 07:29:16;;;;;;;4.27;2.07;;;;;;;;;;5055859;27;87446;-54
2023/10/13 07:31:45;;;;;;;4.40;2.17;;;;;;;;;;5056268;27;89504;-55
2023/10/13 07:34:24;;;;;;;3.93;2.10;;;;;;;;;;5062772;27;89197;-57
2023/10/13 07:36:59;;;;;;;3.00;1.60;;;;;;;;;;5062632;27;87851;-57
2023/10/13 07:39:33;;;;;;;2.90;1.93;;;;;;;;;;5060568;27;87549;-56
2023/10/13 07:42:07;;;;;;;2.23;1.60;;;;;;;;;;5053545;27;87635;-57
2023/10/13 07:44:45;;;;;;;3.50;1.80;;;;;;;;;;5057116;27;87437;-56
2023/10/13 07:47:15;;;;;;;3.50;1.50;;;;;;;;;;5061679;27;88755;-56
2023/10/13 07:49:50;;;;;;;1.67;1.57;;;;;;;;;;5060208;27;88032;-56
2023/10/13 07:52:36;;;;;;;3.23;1.70;;;;;;;;;;5061705;27;88525;-56
2023/10/13 07:55:13;;;;;;;3.07;1.70;;;;;;;;;;5059065;27;89468;-56
2023/10/13 07:57:54;;;;;;;2.53;1.67;;;;;;;;;;5050820;27;88864;-53
2023/10/13 08:00:46;;;;;;;2.07;1.40;;;;;;;;;;5054380;27;89357;-52
2023/10/13 08:03:35;;;;;;;1.60;1.50;;;;;;;;;;5061760;27;88749;-53
2023/10/13 08:06:18;;;;;;;2.80;1.80;;;;;;;;;;5048965;27;87555;-53
2023/10/13 08:08:54;;;;;;;5.03;1.90;;;;;;;;;;5053161;27;87989;-53
2023/10/13 08:11:30;;;;;;;2.53;2.27;;;;;;;;;;5060602;27;87554;-53
2023/10/13 08:14:10;;;;;;;5.30;2.23;;;;;;;;;;5057050;27;89671;-54
2023/10/13 08:17:00;;;;;;;5.50;2.00;;;;;;;;;;5046451;27;88585;-53
2023/10/13 08:19:39;;;;;;;2.97;1.87;;;;;;;;;;5058484;27;89780;-54
2023/10/13 08:28:45;;;;;;;2.70;1.93;;;;;;;;;;5061146;27;88053;-57
2023/10/13 08:30:52;;;;;;;3.77;1.97;;;;;;;;;;5051556;27;88968;-53
2023/10/13 08:33:27;;;;;;;3.17;1.90;;;;;;;;;;5050473;27;87605;-53
2023/10/13 08:36:05;;;;;;;3.00;1.90;;;;;;;;;;5060541;27;89738;-53
2023/10/13 08:38:50;;;;;;;2.90;1.90;;;;;;;;;;5060718;27;88074;-53
2023/10/13 08:41:31;;;;;;;3.43;2.23;;;;;;;;;;5061211;27;89007;-53
2023/10/13 08:44:09;;;;;;;5.37;2.00;;;;;;;;;;5061766;27;87861;-54
2023/10/13 08:49:23;;;;;;;7.80;2.13;;;;;;;;;;5061766;27;89134;-53
2023/10/13 08:52:05;;;;;;;6.10;2.33;;;;;;;;;;5060868;27;87918;-53
2023/10/13 08:54:34;;;;;;;4.47;1.80;;;;;;;;;;5057566;27;88603;-53
2023/10/13 08:57:32;;;;;;;3.83;1.60;;;;;;;;;;5061144;27;87402;-53
2023/10/13 09:03:28;;;;;;;7.83;1.50;;;;;;;;;;5061187;27;87777;-53
2023/10/13 09:06:06;;;;;;;2.13;1.13;;;;;;;;;;5042364;27;87444;-53
2023/10/13 09:09:03;;;;;;;2.07;1.53;;;;;;;;;;5045530;27;88561;-53
2023/10/13 09:11:27;;;;;;;2.93;1.63;;;;;;;;;;5058614;27;88965;-54
2023/10/13 09:13:55;;;;;;;9.97;1.83;;;;;;;;;;5061129;27;88361;-53
2023/10/13 09:19:11;;;;;;;4.20;1.97;;;;;;;;;;5052275;27;89900;-53
2023/10/13 09:21:54;;;;;;;3.03;1.80;;;;;;;;;;5045287;27;87513;-53
2023/10/13 09:24:27;;;;;;;3.13;2.07;;;;;;;;;;5054098;27;88762;-53
2023/10/13 09:26:55;;;;;;;5.07;1.60;;;;;;;;;;5054449;27;87659;-53
2023/10/13 09:29:24;;;;;;;5.70;1.90;;;;;;;;;;5055888;27;87442;-53
2023/10/13 09:32:00;;;;;;;4.50;1.37;;;;;;;;;;5060430;27;88900;-53
2023/10/13 09:34:31;;;;;;;1.63;1.00;;;;;;;;;;5060410;27;88769;-53
2023/10/13 09:37:03;;;;;;;2.50;1.77;;;;;;;;;;5058903;27;88752;-52
2023/10/13 09:39:34;;;;;;;2.67;1.60;;;;;;;;;;5052676;27;89608;-53
2023/10/13 09:42:03;;;;;;;3.97;1.60;;;;;;;;;;5057349;27;89121;-53
2023/10/13 09:44:31;;;;;;;2.17;1.50;;;;;;;;;;5060992;27;88929;-53
2023/10/13 09:47:07;;;;;;;4.07;1.40;;;;;;;;;;5061162;27;87585;-53
2023/10/13 09:49:45;;;;;;;2.03;1.33;;;;;;;;;;5061478;27;88727;-53
2023/10/13 09:52:25;;;;;;;2.07;1.20;;;;;;;;;;5061065;27;89007;-53
2023/10/13 09:55:01;;;;;;;2.47;1.30;;;;;;;;;;5064890;27;87608;-53
2023/10/13 09:57:34;;;;;;;3.57;1.87;;;;;;;;;;5063904;27;87539;-52
2023/10/13 10:00:15;;;;;;;2.43;1.73;;;;;;;;;;5055487;27;89585;-53
2023/10/13 10:02:44;;;;;;;2.03;1.83;;;;;;;;;;5049976;27;89758;-53
2023/10/13 10:05:21;;;;;;;2.23;2.00;;;;;;;;;;5060672;27;89990;-53
2023/10/13 10:07:56;;;;;;;4.83;1.93;;;;;;;;;;5064442;27;87596;-52
2023/10/13 10:10:25;;;;;;;5.47;2.00;;;;;;;;;;5059681;27;89708;-53
2023/10/13 10:12:55;;;;;;;5.37;1.80;;;;;;;;;;5056699;27;89436;-54
2023/10/13 10:15:29;;;;;;;2.37;1.43;;;;;;;;;;5065419;27;88797;-53
2023/10/13 10:17:58;;;;;;;3.10;1.80;;;;;;;;;;5062179;27;87390;-54
2023/10/13 10:20:39;;;;;;;6.83;1.90;;;;;;;;;;5064871;27;89952;-54
2023/10/13 10:23:17;;;;;;;2.83;1.60;;;;;;;;;;5063665;27;88081;-55
2023/10/13 10:25:46;;;;;;;2.40;1.50;;;;;;;;;;5063746;27;87987;-54
2023/10/13 10:28:15;;;;;;;1.27;1.17;;;;;;;;;;5062924;27;87853;-54
2023/10/13 10:30:44;;;;;;;1.87;1.63;;;;;;;;;;5063232;27;89853;-54
2023/10/13 10:33:13;;;;;;;1.83;1.50;;;;;;;;;;5055247;27;88052;-54
2023/10/13 10:35:42;;;;;;;3.23;1.77;;;;;;;;;;5063452;27;87756;-54
2023/10/13 10:38:15;;;;;;;3.20;2.03;;;;;;;;;;5063732;27;87682;-54
2023/10/13 10:40:56;;;;;;;2.37;1.53;;;;;;;;;;5063538;27;88766;-53
2023/10/13 10:43:41;;;;;;;1.70;1.50;;;;;;;;;;5063433;27;88044;-54
2023/10/13 10:46:10;;;;;;;2.03;1.77;;;;;;;;;;5063265;27;88693;-53
2023/10/13 10:48:43;;;;;;;2.03;1.37;;;;;;;;;;5062118;27;87422;-54
2023/10/13 10:51:22;;;;;;;2.13;1.70;;;;;;;;;;5073208;27;88652;-53
2023/10/13 10:53:56;;;;;;;3.50;1.70;;;;;;;;;;5062867;27;89162;-53
2023/10/13 10:56:25;;;;;;;5.03;1.67;;;;;;;;;;5055482;27;88589;-53
2023/10/13 10:58:57;;;;;;;4.00;1.83;;;;;;;;;;5062948;27;87401;-54
2023/10/13 11:01:33;;;;;;;2.30;1.60;;;;;;;;;;5063128;27;87487;-53
2023/10/13 11:04:08;;;;;;;4.10;1.80;;;;;;;;;;5063483;27;87986;-53
2023/10/13 11:06:42;;;;;;;2.50;1.60;;;;;;;;;;5049283;27;88830;-53
2023/10/13 11:09:31;;;;;;;9.37;1.60;;;;;;;;;;5051943;27;89002;-54
2023/10/13 11:12:14;;;;;;;3.23;1.60;;;;;;;;;;5063538;27;88511;-54
2023/10/13 11:14:46;;;;;;;2.43;1.40;;;;;;;;;;5057394;27;88061;-54
2023/10/13 11:17:25;;;;;;;1.33;1.20;;;;;;;;;;5061524;27;88539;-54
2023/10/13 11:19:54;;;;;;;2.13;1.50;;;;;;;;;;5060322;27;88445;-53
2023/10/13 11:22:41;;;;;;;2.43;1.83;;;;;;;;;;5057207;27;89573;-54
2023/10/13 11:25:11;;;;;;;4.40;1.87;;;;;;;;;;5062629;27;88124;-54
2023/10/13 11:27:55;;;;;;;3.50;1.37;;;;;;;;;;5061090;27;87845;-54
2023/10/13 11:30:29;;;;;;;3.17;1.43;;;;;;;;;;5062676;27;87486;-53
2023/10/13 11:32:58;;;;;;;2.07;1.87;;;;;;;;;;5062341;27;88603;-54
2023/10/13 11:35:30;;;;;;;2.70;1.43;;;;;;;;;;5062397;27;88065;-53
2023/10/13 11:38:03;;;;;;;1.57;1.33;;;;;;;;;;5062444;27;87719;-54
2023/10/13 11:40:44;;;;;;;2.50;1.10;;;;;;;;;;5054958;27;87716;-53
2023/10/13 11:43:14;;;;;;;3.60;1.87;;;;;;;;;;5059719;27;88543;-54
2023/10/13 11:45:56;;;;;;;2.73;1.37;;;;;;;;;;5060779;27;90083;-53
2023/10/13 11:48:36;;;;;;;2.27;1.40;;;;;;;;;;5055563;27;89952;-54
2023/10/13 11:51:07;;;;;;;1.90;1.23;;;;;;;;;;5055848;27;89718;-54
2023/10/13 11:53:35;;;;;;;4.90;1.73;;;;;;;;;;5062075;27;88337;-53
2023/10/13 11:56:08;;;;;;;3.33;2.03;;;;;;;;;;5068067;27;89094;-54
2023/10/13 11:58:36;;;;;;;4.83;1.90;;;;;;;;;;5062919;27;88800;-54
2023/10/13 12:01:20;;;;;;;2.37;1.70;;;;;;;;;;5056412;27;87686;-53
2023/10/13 12:06:46;;;;;;;1.30;1.20;;;;;;;;;;5060626;27;89174;-53
2023/10/13 12:09:41;;;;;;;3.60;1.37;;;;;;;;;;5061763;27;88753;-54
2023/10/13 12:12:09;;;;;;;3.47;1.73;;;;;;;;;;5060992;27;88015;-54
2023/10/13 12:14:37;;;;;;;3.33;1.63;;;;;;;;;;5050172;27;89725;-54
2023/10/13 12:17:10;;;;;;;2.67;1.80;;;;;;;;;;5061710;27;89086;-53
2023/10/13 12:19:40;;;;;;;2.37;1.50;;;;;;;;;;5062161;27;88762;-54
2023/10/13 12:22:16;;;;;;;2.20;1.10;;;;;;;;;;5062306;27;87600;-54
2023/10/13 12:24:53;;;;;;;6.80;1.50;;;;;;;;;;5062180;27;88519;-53
2023/10/13 12:27:26;;;;;;;4.40;2.03;;;;;;;;;;5062153;27;88727;-54
2023/10/13 12:29:56;;;;;;;3.37;1.53;;;;;;;;;;5061849;27;87773;-53
2023/10/13 12:32:30;;;;;;;4.80;1.77;;;;;;;;;;5046831;27;87475;-53
2023/10/13 12:35:17;;;;;;;2.03;1.20;;;;;;;;;;5054095;27;88500;-54
2023/10/13 12:37:50;;;;;;;1.90;1.20;;;;;;;;;;5046458;27;89965;-54
2023/10/13 12:49:04;;;;;;;4.23;1.80;;;;;;;;;;5053960;27;89182;-54
2023/10/13 12:51:50;;;;;;;4.13;1.57;;;;;;;;;;5049821;27;88883;-55
2023/10/13 12:54:23;;;;;;;2.67;1.67;;;;;;;;;;5047788;27;87875;-54
2023/10/13 12:56:56;;;;;;;2.33;1.47;;;;;;;;;;5048504;27;89663;-54
2023/10/13 12:59:27;;;;;;;2.90;1.60;;;;;;;;;;5043703;27;89284;-55
2023/10/13 13:01:55;;;;;;;3.03;1.70;;;;;;;;;;5048570;27;89142;-53
2023/10/13 13:04:27;;;;;;;3.87;1.73;;;;;;;;;;5046313;27;89715;-54
2023/10/13 13:06:56;;;;;;;2.27;1.60;;;;;;;;;;5051885;27;88696;-54
2023/10/13 13:09:26;;;;;;;2.20;1.67;;;;;;;;;;5055937;27;88056;-54
2023/10/13 13:11:57;;;;;;;5.30;2.07;;;;;;;;;;5054905;27;87932;-54
2023/10/13 13:14:28;;;;;;;3.20;1.70;;;;;;;;;;5060747;27;87591;-54
2023/10/13 13:17:04;;;;;;;2.30;1.20;;;;;;;;;;5058550;27;89667;-54
2023/10/13 13:19:36;;;;;;;3.03;2.10;;;;;;;;;;5055082;27;88593;-54
2023/10/13 13:22:05;;;;;;;2.67;1.50;;;;;;;;;;5060966;27;87709;-54
2023/10/13 13:24:33;;;;;;;4.90;2.00;;;;;;;;;;5053181;27;87855;-54
2023/10/13 13:27:05;;;;;;;3.90;1.47;;;;;;;;;;5058484;27;88499;-54
2023/10/13 13:29:37;;;;;;;1.70;1.27;;;;;;;;;;5059787;27;90035;-54
2023/10/13 13:32:17;;;;;;;5.27;1.80;;;;;;;;;;5060681;27;90212;-54
2023/10/13 13:34:54;;;;;;;2.67;1.87;;;;;;;;;;5061345;27;87554;-54
2023/10/13 13:37:22;;;;;;;2.57;2.03;;;;;;;;;;5060741;27;89627;-54
2023/10/13 13:39:52;;;;;;;3.67;1.40;;;;;;;;;;5060371;27;89267;-54
2023/10/13 13:42:21;;;;;;;3.10;1.93;;;;;;;;;;5060462;27;88772;-53
2023/10/13 13:44:51;;;;;;;3.83;1.80;;;;;;;;;;5054053;27;89162;-54
2023/10/13 13:47:19;;;;;;;2.73;1.47;;;;;;;;;;5055284;27;90647;-54
2023/10/13 13:49:51;;;;;;;2.20;1.23;;;;;;;;;;5056061;27;88153;-53
2023/10/13 13:52:33;;;;;;;2.20;1.47;;;;;;;;;;5054157;27;88811;-53
2023/10/13 13:55:03;;;;;;;2.70;2.03;;;;;;;;;;5054710;27;88026;-53
2023/10/13 13:57:31;;;;;;;6.63;2.13;;;;;;;;;;5056435;27;89643;-53
2023/10/13 14:00:01;;;;;;;2.43;1.50;;;;;;;;;;5057526;27;88108;-53
2023/10/13 14:02:29;;;;;;;3.77;1.97;;;;;;;;;;5057252;27;88974;-53
2023/10/13 14:04:58;;;;;;;1.90;1.37;;;;;;;;;;5058428;27;88097;-53
2023/10/13 14:07:32;;;;;;;3.67;1.83;;;;;;;;;;5057123;27;88326;-53
2023/10/13 14:10:06;;;;;;;3.00;1.37;;;;;;;;;;5057789;27;88054;-53
2023/10/13 14:12:41;;;;;;;3.60;1.63;;;;;;;;;;5056832;27;87909;-54
2023/10/13 14:15:23;;;;;;;3.80;1.83;;;;;;;;;;5057727;27;87951;-53
2023/10/13 14:17:52;;;;;;;4.17;1.77;;;;;;;;;;5057610;27;87510;-53
2023/10/13 14:20:21;;;;;;;2.80;1.50;;;;;;;;;;5056162;27;89153;-53
2023/10/13 14:22:49;;;;;;;4.17;1.20;;;;;;;;;;5057043;27;89835;-53
2023/10/13 14:25:18;;;;;;;2.47;1.40;;;;;;;;;;5057569;27;87689;-53
2023/10/13 14:27:47;;;;;;;3.57;2.17;;;;;;;;;;5057586;27;89456;-53
2023/10/13 14:30:20;;;;;;;17.13;5.90;;;;;;;;;;5056734;27;89259;-55
2023/10/13 14:32:48;;;;;;;127.57;34.00;;;;;;;;;;5056520;27;89163;-53
2023/10/13 14:35:17;;;;;;;286.87;85.17;;;;;;;;;;5056155;27;87726;-53
2023/10/13 14:37:45;;;;;;;108.07;34.63;;;;;;;;;;5056442;27;89862;-54
2023/10/13 14:40:15;;;;;;;224.37;62.97;;;;;;;;;;5056036;27;88233;-55
2023/10/13 14:42:46;;;;;;;166.43;54.13;;;;;;;;;;5055787;27;87463;-55
2023/10/13 14:45:16;;;;;;;121.40;42.27;;;;;;;;;;5055146;27;88044;-55
2023/10/13 14:47:46;;;;;;;102.70;33.40;;;;;;;;;;5055865;27;89762;-56
2023/10/13 14:50:21;;;;;;;111.83;35.10;;;;;;;;;;5056054;27;89233;-55
2023/10/13 14:52:49;;;;;;;92.87;30.93;;;;;;;;;;5052676;27;88479;-55
2023/10/13 14:55:21;;;;;;;81.27;29.97;;;;;;;;;;5052626;27;87686;-55
2023/10/13 14:57:50;;;;;;;78.40;28.67;;;;;;;;;;5054688;27;89785;-54
2023/10/13 15:00:25;;;;;;;85.43;28.87;;;;;;;;;;5055492;27;87571;-55
2023/10/13 15:02:55;;;;;;;70.90;24.93;;;;;;;;;;5058535;27;87813;-55
2023/10/13 15:05:24;;;;;;;58.40;20.83;;;;;;;;;;5056850;27;87570;-55
2023/10/13 15:07:52;;;;;;;77.40;23.33;;;;;;;;;;5058742;27;88564;-54
2023/10/13 15:10:21;;;;;;;65.97;21.80;;;;;;;;;;5053749;27;90142;-54
2023/10/13 15:12:49;;;;;;;39.70;17.37;;;;;;;;;;5058158;27;88774;-55
2023/10/13 15:15:19;;;;;;;41.03;17.43;;;;;;;;;;5059379;27;88094;-55
2023/10/13 15:17:48;;;;;;;37.50;16.20;;;;;;;;;;5058663;27;89369;-54
2023/10/13 15:20:18;;;;;;;45.20;16.33;;;;;;;;;;5058583;27;87970;-54
2023/10/13 15:22:47;;;;;;;34.33;14.10;;;;;;;;;;5058975;27;87808;-53
2023/10/13 15:25:28;;;;;;;31.73;13.90;;;;;;;;;;5059524;27;87458;-54
2023/10/13 15:28:02;;;;;;;24.57;9.77;;;;;;;;;;5051278;27;89119;-54
2023/10/13 15:30:43;;;;;;;29.73;10.90;;;;;;;;;;5059501;27;89046;-53
2023/10/13 15:33:12;;;;;;;31.07;10.73;;;;;;;;;;5058157;27;89550;-54
2023/10/13 15:35:45;;;;;;;30.57;11.07;;;;;;;;;;5058802;27;87918;-54
2023/10/13 15:38:14;;;;;;;24.40;10.37;;;;;;;;;;5059048;27;88376;-55
2023/10/13 15:40:43;;;;;;;24.63;10.40;;;;;;;;;;5059293;27;89061;-54
2023/10/13 15:43:12;;;;;;;36.03;9.47;;;;;;;;;;5059228;27;88411;-55
2023/10/13 15:45:42;;;;;;;22.33;8.07;;;;;;;;;;5059213;27;89233;-55
2023/10/13 15:48:12;;;;;;;25.03;10.03;;;;;;;;;;5058884;27;89329;-55
2023/10/13 15:50:49;;;;;;;18.07;8.87;;;;;;;;;;5058348;27;88040;-54
2023/10/13 15:53:18;;;;;;;25.83;8.20;;;;;;;;;;5059695;27;87775;-54
2023/10/13 15:55:47;;;;;;;27.20;8.07;;;;;;;;;;5059639;27;87629;-55
2023/10/13 15:58:16;;;;;;;21.53;7.70;;;;;;;;;;5058955;27;89184;-55
2023/10/13 16:00:45;;;;;;;18.40;8.97;;;;;;;;;;5058682;27;88995;-55
2023/10/13 16:03:14;;;;;;;15.93;8.53;;;;;;;;;;5058643;27;89825;-55
2023/10/13 16:05:43;;;;;;;17.93;8.97;;;;;;;;;;5059239;27;87903;-54
2023/10/13 16:08:13;;;;;;;20.40;7.97;;;;;;;;;;5058954;27;88662;-54
2023/10/13 16:10:42;;;;;;;19.60;7.87;;;;;;;;;;5058809;27;88106;-55
2023/10/13 16:13:15;;;;;;;19.53;9.07;;;;;;;;;;5057920;27;87499;-57
2023/10/13 16:15:47;;;;;;;24.00;9.57;;;;;;;;;;5059807;27;88189;-55
2023/10/13 16:18:21;;;;;;;23.83;8.80;;;;;;;;;;5057454;27;88806;-56
2023/10/13 16:20:51;;;;;;;21.70;7.53;;;;;;;;;;5058354;27;88432;-56
2023/10/13 16:23:22;;;;;;;22.93;8.87;;;;;;;;;;5058491;27;87780;-57
2023/10/13 16:25:51;;;;;;;33.00;9.30;;;;;;;;;;5058724;27;88122;-56
2023/10/13 16:28:22;;;;;;;22.67;9.00;;;;;;;;;;5058696;27;88307;-55
2023/10/13 16:30:53;;;;;;;19.23;8.60;;;;;;;;;;5058514;27;88922;-56
2023/10/13 16:33:22;;;;;;;15.63;7.57;;;;;;;;;;5058631;27;87496;-55
2023/10/13 16:35:53;;;;;;;18.83;7.50;;;;;;;;;;5058754;27;87672;-56
2023/10/13 16:38:24;;;;;;;19.53;8.27;;;;;;;;;;5058883;27;88547;-55
2023/10/13 16:40:54;;;;;;;19.13;7.93;;;;;;;;;;5058943;27;88003;-55
2023/10/13 16:43:22;;;;;;;14.30;7.53;;;;;;;;;;5059132;27;87624;-55
2023/10/13 16:45:51;;;;;;;16.83;8.07;;;;;;;;;;5058809;27;87676;-55
2023/10/13 16:48:19;;;;;;;12.77;6.67;;;;;;;;;;5057862;27;88513;-56
2023/10/13 16:50:48;;;;;;;14.63;6.63;;;;;;;;;;5057673;27;89146;-55
2023/10/13 16:53:16;;;;;;;11.77;6.07;;;;;;;;;;5058068;27;88741;-55
2023/10/13 16:55:46;;;;;;;12.67;6.47;;;;;;;;;;5058548;27;87607;-55
2023/10/13 16:58:15;;;;;;;19.27;7.03;;;;;;;;;;5057812;27;89712;-55
2023/10/13 17:00:46;;;;;;;9.87;6.23;;;;;;;;;;5058339;27;88065;-56
2023/10/13 17:03:15;;;;;;;11.03;6.23;;;;;;;;;;5058261;27;88853;-55
2023/10/13 17:05:43;;;;;;;19.27;5.87;;;;;;;;;;5057792;27;87715;-55
2023/10/13 17:08:13;;;;;;;14.77;6.33;;;;;;;;;;5058348;27;88566;-56
2023/10/13 17:10:41;;;;;;;10.23;5.23;;;;;;;;;;5056769;27;87720;-56
2023/10/13 17:13:11;;;;;;;12.97;5.53;;;;;;;;;;5056969;27;88927;-56